KUOX/UOX METAR and TAF weather

Enter ICAO airport designator
Station Type Date Time Source
KUOX METAR 2022/01/18 07:35 UTC NOAA

KUOX 180735Z AUTO 00000KT 9SM CLR M02/M02 A3013 RMK AO2 PWINO


Station Type Date Time Source
KUOX Decoded METAR 2022/01/18 07:35 UTC NOAA

Oxford, University-Oxford Airport, MS, United States (KUOX) 34-23-04N 089-32-08W
Jan 18, 2022 - 02:35 AM EST / 2022.01.18 0735 UTC
Wind: Calm:0
Visibility: 9 mile(s):0
Sky conditions: clear
Temperature: 28 F (-2 C)
Dew Point: 28 F (-2 C)
Relative Humidity: 100%
Pressure (altimeter): 30.13 in. Hg (1020 hPa)
ob: KUOX 180735Z AUTO 00000KT 9SM CLR M02/M02 A3013 RMK AO2 PWINO
cycle: 7

Station Type Date Time Source
KUOX TAF UTC NOAA

Error!

Example: see airport list